createdAt,value
2018-12-26T00:00:07.151Z,1025.38
2018-12-26T00:01:07.035Z,1025.45
2018-12-26T00:02:07.004Z,1025.43
2018-12-26T00:03:06.972Z,1025.43
2018-12-26T00:04:06.940Z,1025.47
2018-12-26T00:05:06.910Z,1025.43
2018-12-26T00:06:06.879Z,1025.52
2018-12-26T00:07:06.847Z,1025.42
2018-12-26T00:08:06.817Z,1025.36
2018-12-26T00:09:06.790Z,1025.34
2018-12-26T00:10:06.754Z,1025.42
2018-12-26T00:11:06.724Z,1025.20
2018-12-26T00:12:06.695Z,1025.22
2018-12-26T00:13:06.662Z,1025.18
2018-12-26T00:14:06.633Z,1025.26
2018-12-26T00:15:06.598Z,1025.08
2018-12-26T00:16:06.568Z,1025.15
2018-12-26T00:17:06.538Z,1025.13
2018-12-26T00:18:06.508Z,1025.16
2018-12-26T00:19:06.475Z,1025.33
2018-12-26T00:20:06.478Z,1025.17
2018-12-26T00:21:06.417Z,1025.20
2018-12-26T00:22:06.380Z,1025.26
2018-12-26T00:23:06.348Z,1025.07
2018-12-26T00:24:06.319Z,1025.24
2018-12-26T00:25:06.310Z,1025.24
2018-12-26T00:26:06.256Z,1025.33
2018-12-26T00:27:06.224Z,1025.22
2018-12-26T00:28:06.196Z,1025.26
2018-12-26T00:29:06.614Z,1025.21
2018-12-26T00:30:06.130Z,1025.27
2018-12-26T00:31:06.103Z,1025.19
2018-12-26T00:32:06.069Z,1025.14
2018-12-26T00:33:06.036Z,1025.19
2018-12-26T00:34:06.005Z,1025.23
2018-12-26T00:35:05.976Z,1025.08
2018-12-26T00:36:05.943Z,1025.06
2018-12-26T00:37:05.911Z,1025.30
2018-12-26T00:38:05.881Z,1025.25
2018-12-26T00:39:05.846Z,1025.21
2018-12-26T00:40:05.819Z,1025.18
2018-12-26T00:41:05.783Z,1025.22
2018-12-26T00:42:05.753Z,1025.19
2018-12-26T00:43:05.721Z,1025.09
2018-12-26T00:44:05.689Z,1025.30
2018-12-26T00:45:05.659Z,1025.23
2018-12-26T00:46:05.629Z,1025.15
2018-12-26T00:47:05.594Z,1025.05
2018-12-26T00:48:05.564Z,1025.14
2018-12-26T00:49:05.530Z,1025.14
2018-12-26T00:50:05.499Z,1025.17
2018-12-26T00:51:05.476Z,1025.01
2018-12-26T00:52:05.437Z,1025.18
2018-12-26T00:53:05.405Z,1025.12
2018-12-26T00:54:05.375Z,1025.22
2018-12-26T00:55:05.342Z,1025.05
2018-12-26T00:56:10.459Z,1025.00
2018-12-26T00:57:05.282Z,1025.04
2018-12-26T00:58:05.265Z,1025.07
2018-12-26T00:59:05.215Z,1025.10
2018-12-26T01:00:05.187Z,1025.04
2018-12-26T01:01:05.151Z,1024.97
2018-12-26T01:02:05.128Z,1025.02
2018-12-26T01:03:05.091Z,1024.87
2018-12-26T01:04:05.064Z,1025.09
2018-12-26T01:05:05.029Z,1025.05
2018-12-26T01:06:05.026Z,1025.08
2018-12-26T01:07:04.961Z,1024.90
2018-12-26T01:08:04.931Z,1024.95
2018-12-26T01:09:04.898Z,1024.91
2018-12-26T01:10:04.867Z,1024.98
2018-12-26T01:11:04.834Z,1024.92
2018-12-26T01:12:04.801Z,1024.89
2018-12-26T01:13:04.772Z,1025.09
2018-12-26T01:14:04.741Z,1025.03
2018-12-26T01:15:04.709Z,1025.11
2018-12-26T01:16:04.676Z,1025.05
2018-12-26T01:17:04.644Z,1024.91
2018-12-26T01:18:04.612Z,1025.00
2018-12-26T01:19:04.580Z,1025.02
2018-12-26T01:20:04.548Z,1024.92
2018-12-26T01:21:04.516Z,1024.98
2018-12-26T01:22:04.484Z,1025.10
2018-12-26T01:23:04.452Z,1025.00
2018-12-26T01:24:04.421Z,1025.06
2018-12-26T01:25:04.389Z,1024.75
2018-12-26T01:26:04.363Z,1024.73
2018-12-26T01:27:04.326Z,1025.15
2018-12-26T01:28:04.293Z,1025.12
2018-12-26T01:29:04.262Z,1024.86
2018-12-26T01:30:04.229Z,1024.92
2018-12-26T01:31:04.198Z,1024.94
2018-12-26T01:32:04.166Z,1025.02
2018-12-26T01:33:04.138Z,1024.83
2018-12-26T01:34:04.104Z,1024.97
2018-12-26T01:35:04.070Z,1024.91
2018-12-26T01:36:04.038Z,1024.84
2018-12-26T01:37:04.220Z,1024.92
2018-12-26T01:38:03.975Z,1024.88
2018-12-26T01:39:03.942Z,1025.02
2018-12-26T01:40:03.911Z,1025.06
2018-12-26T01:41:03.887Z,1025.01
2018-12-26T01:42:03.848Z,1025.00
2018-12-26T01:43:03.816Z,1025.13
2018-12-26T01:44:03.783Z,1025.21
2018-12-26T01:45:03.757Z,1024.81
2018-12-26T01:46:03.721Z,1024.85
2018-12-26T01:47:03.687Z,1024.86
2018-12-26T01:48:03.656Z,1024.95
2018-12-26T01:49:03.628Z,1025.03
2018-12-26T01:50:03.593Z,1024.91
2018-12-26T01:51:03.561Z,1024.91
2018-12-26T01:52:03.527Z,1024.99
2018-12-26T01:53:03.497Z,1024.90
2018-12-26T01:54:03.464Z,1025.08
2018-12-26T01:55:03.433Z,1025.03
2018-12-26T01:56:03.403Z,1025.12
2018-12-26T01:57:03.369Z,1025.02
2018-12-26T01:58:03.338Z,1025.14
2018-12-26T01:59:03.306Z,1025.07
2018-12-26T02:00:03.277Z,1025.10
2018-12-26T02:01:03.242Z,1025.13
2018-12-26T02:02:03.210Z,1025.19
2018-12-26T02:03:03.176Z,1025.17
2018-12-26T02:04:03.150Z,1025.20
2018-12-26T02:05:03.117Z,1025.26
2018-12-26T02:06:03.086Z,1025.20
2018-12-26T02:07:03.053Z,1025.19
2018-12-26T02:08:03.022Z,1025.07
2018-12-26T02:09:02.989Z,1025.18
2018-12-26T02:10:02.957Z,1025.10
2018-12-26T02:11:02.923Z,1025.25
2018-12-26T02:12:02.891Z,1025.11
2018-12-26T02:13:02.859Z,1025.08
2018-12-26T02:14:02.828Z,1025.25
2018-12-26T02:15:02.795Z,1025.10
2018-12-26T02:16:02.763Z,1025.10
2018-12-26T02:17:02.736Z,1025.00
2018-12-26T02:18:02.700Z,1025.06
2018-12-26T02:19:02.668Z,1025.01
2018-12-26T02:20:02.637Z,1025.13
2018-12-26T02:21:02.702Z,1024.78
2018-12-26T02:22:02.573Z,1024.96
2018-12-26T02:23:02.542Z,1024.84
2018-12-26T02:24:02.508Z,1024.90
2018-12-26T02:25:02.483Z,1024.91
2018-12-26T02:26:02.444Z,1025.01
2018-12-26T02:27:02.411Z,1024.96
2018-12-26T02:28:02.380Z,1025.12
2018-12-26T02:29:02.350Z,1024.89
2018-12-26T02:30:02.320Z,1024.68
2018-12-26T02:31:02.325Z,1024.74
2018-12-26T02:32:02.258Z,1024.86
2018-12-26T02:33:02.222Z,1024.73
2018-12-26T02:34:02.188Z,1024.87
2018-12-26T02:35:02.162Z,1025.01
2018-12-26T02:36:02.156Z,1025.10
2018-12-26T02:37:02.148Z,1024.99
2018-12-26T02:38:02.062Z,1024.91
2018-12-26T02:39:02.029Z,1025.11
2018-12-26T02:40:01.998Z,1024.95
2018-12-26T02:41:01.966Z,1024.82
2018-12-26T02:42:01.933Z,1024.84
2018-12-26T02:43:01.903Z,1024.95
2018-12-26T02:44:01.875Z,1024.77
2018-12-26T02:45:01.843Z,1025.04
2018-12-26T02:46:01.808Z,1024.86
2018-12-26T02:47:01.778Z,1024.75
2018-12-26T02:48:01.747Z,1024.90
2018-12-26T02:49:01.757Z,1024.83
2018-12-26T02:50:01.688Z,1024.92
2018-12-26T02:51:01.646Z,1024.94
2018-12-26T02:52:01.619Z,1024.88
2018-12-26T02:53:01.582Z,1024.87
2018-12-26T02:54:01.553Z,1024.85
2018-12-26T02:55:01.533Z,1024.94
2018-12-26T02:56:01.493Z,1025.16
2018-12-26T02:57:01.456Z,1024.91
2018-12-26T02:58:01.428Z,1024.83
2018-12-26T02:59:01.395Z,1024.96
2018-12-26T03:00:01.360Z,1024.82
2018-12-26T03:01:01.329Z,1024.90
2018-12-26T03:02:01.298Z,1024.87
2018-12-26T03:03:01.265Z,1024.78
2018-12-26T03:04:01.233Z,1024.74
2018-12-26T03:05:01.213Z,1024.78
2018-12-26T03:06:01.171Z,1024.76
2018-12-26T03:07:01.137Z,1024.82
2018-12-26T03:08:01.105Z,1024.77
2018-12-26T03:09:01.074Z,1024.71
2018-12-26T03:10:01.070Z,1024.74
2018-12-26T03:11:01.010Z,1024.74
2018-12-26T03:12:00.979Z,1024.64
2018-12-26T03:13:00.947Z,1024.82
2018-12-26T03:14:03.168Z,1024.77
2018-12-26T03:15:00.901Z,1024.63
2018-12-26T03:16:00.850Z,1024.68
2018-12-26T03:17:00.821Z,1024.81
2018-12-26T03:18:00.790Z,1024.68
2018-12-26T03:19:00.756Z,1024.77
2018-12-26T03:20:00.723Z,1024.69
2018-12-26T03:21:00.695Z,1024.53
2018-12-26T03:22:00.664Z,1024.69
2018-12-26T03:23:00.629Z,1024.65
2018-12-26T03:24:00.596Z,1024.64
2018-12-26T03:25:00.564Z,1024.81
2018-12-26T03:26:00.531Z,1024.69
2018-12-26T03:27:00.520Z,1024.52
2018-12-26T03:28:00.469Z,1024.61
2018-12-26T03:29:00.437Z,1024.58
2018-12-26T03:30:00.407Z,1024.53
2018-12-26T03:31:00.374Z,1024.36
2018-12-26T03:32:00.362Z,1024.27
2018-12-26T03:33:00.316Z,1024.37
2018-12-26T03:34:00.278Z,1024.26
2018-12-26T03:35:00.267Z,1024.24
2018-12-26T03:36:00.215Z,1024.36
2018-12-26T03:37:00.182Z,1024.31
2018-12-26T03:38:00.151Z,1024.43
2018-12-26T03:39:00.121Z,1024.39
2018-12-26T03:40:00.087Z,1024.33
2018-12-26T03:41:00.055Z,1024.25
2018-12-26T03:42:00.024Z,1024.32
2018-12-26T03:42:59.990Z,1024.32
2018-12-26T03:43:59.959Z,1024.36
2018-12-26T03:44:59.926Z,1024.48
2018-12-26T03:45:59.900Z,1024.42
2018-12-26T03:46:59.862Z,1024.43
2018-12-26T03:47:59.830Z,1024.38
2018-12-26T03:48:59.799Z,1024.35
2018-12-26T03:49:59.768Z,1024.40
2018-12-26T03:50:59.734Z,1024.36
2018-12-26T03:52:02.086Z,1024.33
2018-12-26T03:52:59.671Z,1024.22
2018-12-26T03:53:59.641Z,1024.45
2018-12-26T03:54:59.609Z,1024.20
2018-12-26T03:55:59.577Z,1024.34
2018-12-26T03:57:06.051Z,1024.23
2018-12-26T03:57:59.512Z,1024.07
2018-12-26T03:58:59.479Z,1024.11
2018-12-26T03:59:59.448Z,1024.00
2018-12-26T04:00:59.415Z,1024.23
2018-12-26T04:01:59.397Z,1024.14
2018-12-26T04:02:59.356Z,1024.27
2018-12-26T04:03:59.320Z,1024.22
2018-12-26T04:04:59.289Z,1024.31
2018-12-26T04:05:59.257Z,1024.21
2018-12-26T04:06:59.225Z,1024.31
2018-12-26T04:07:59.199Z,1024.42
2018-12-26T04:08:59.161Z,1024.28
2018-12-26T04:09:59.133Z,1024.26
2018-12-26T04:10:59.098Z,1024.19
2018-12-26T04:11:59.067Z,1024.23
2018-12-26T04:12:59.150Z,1024.26
2018-12-26T04:13:59.002Z,1024.21
2018-12-26T04:14:58.970Z,1024.21
2018-12-26T04:15:58.940Z,1024.15
2018-12-26T04:16:58.956Z,1024.16
2018-12-26T04:17:58.877Z,1024.09
2018-12-26T04:18:58.841Z,1024.16
2018-12-26T04:19:58.828Z,1024.19
2018-12-26T04:20:58.779Z,1024.14
2018-12-26T04:21:58.746Z,1024.28
2018-12-26T04:22:58.713Z,1024.10
2018-12-26T04:23:58.681Z,1024.17
2018-12-26T04:24:58.650Z,1024.16
2018-12-26T04:25:58.621Z,1024.10
2018-12-26T04:26:58.587Z,1024.02
2018-12-26T04:27:58.555Z,1024.08
2018-12-26T04:28:58.525Z,1024.10
2018-12-26T04:29:58.490Z,1024.09
2018-12-26T04:30:58.457Z,1024.06
2018-12-26T04:31:58.423Z,1024.04
2018-12-26T04:32:58.393Z,1024.08
2018-12-26T04:33:58.365Z,1024.10
2018-12-26T04:34:58.328Z,1023.98
2018-12-26T04:35:58.297Z,1024.02
2018-12-26T04:36:58.269Z,1024.07
2018-12-26T04:37:58.234Z,1024.11
2018-12-26T04:38:58.212Z,1024.14
2018-12-26T04:39:58.176Z,1024.02
2018-12-26T04:40:58.138Z,1024.17
2018-12-26T04:41:58.105Z,1024.15
2018-12-26T04:42:58.077Z,1024.21
2018-12-26T04:43:58.041Z,1024.25
2018-12-26T04:44:58.008Z,1024.18
2018-12-26T04:45:57.977Z,1024.06
2018-12-26T04:46:57.949Z,1023.94
2018-12-26T04:47:57.911Z,1024.19
2018-12-26T04:48:57.881Z,1024.05
2018-12-26T04:49:57.848Z,1024.08
2018-12-26T04:50:57.816Z,1024.09
2018-12-26T04:51:57.786Z,1024.11
2018-12-26T04:52:57.762Z,1024.11
2018-12-26T04:53:57.733Z,1024.03
2018-12-26T04:54:57.689Z,1024.02
2018-12-26T04:55:57.661Z,1024.12
2018-12-26T04:56:57.628Z,1024.00
2018-12-26T04:57:57.592Z,1023.89
2018-12-26T04:58:57.559Z,1024.07
2018-12-26T04:59:57.529Z,1024.15
2018-12-26T05:00:57.496Z,1024.16
2018-12-26T05:01:57.465Z,1024.09
2018-12-26T05:02:57.435Z,1024.12
2018-12-26T05:03:57.403Z,1024.11
2018-12-26T05:04:57.369Z,1024.12
2018-12-26T05:05:57.336Z,1024.10
2018-12-26T05:06:57.304Z,1024.20
2018-12-26T05:07:57.272Z,1024.22
2018-12-26T05:08:57.244Z,1024.13
2018-12-26T05:09:57.215Z,1024.05
2018-12-26T05:10:57.176Z,1024.06
2018-12-26T05:11:57.144Z,1023.99
2018-12-26T05:12:57.113Z,1024.03
2018-12-26T05:13:57.080Z,1024.02
2018-12-26T05:14:57.048Z,1024.09
2018-12-26T05:15:57.020Z,1024.13
2018-12-26T05:16:56.985Z,1024.17
2018-12-26T05:17:56.951Z,1024.13
2018-12-26T05:18:56.923Z,1024.10
2018-12-26T05:19:56.889Z,1024.18
2018-12-26T05:20:56.860Z,1024.21
2018-12-26T05:21:56.825Z,1024.07
2018-12-26T05:22:56.792Z,1024.18
2018-12-26T05:23:56.769Z,1024.11
2018-12-26T05:24:56.728Z,1024.17
2018-12-26T05:25:56.695Z,1024.03
2018-12-26T05:26:56.688Z,1024.22
2018-12-26T05:27:56.631Z,1024.02
2018-12-26T05:28:56.623Z,1024.17
2018-12-26T05:29:56.566Z,1024.30
2018-12-26T05:30:56.535Z,1024.19
2018-12-26T05:31:56.502Z,1024.22
2018-12-26T05:32:56.473Z,1024.16
2018-12-26T05:33:56.438Z,1024.26
2018-12-26T05:34:56.406Z,1024.20
2018-12-26T05:35:56.374Z,1024.18
2018-12-26T05:36:56.372Z,1024.03
2018-12-26T05:37:56.311Z,1024.06
2018-12-26T05:38:56.279Z,1024.11
2018-12-26T05:39:56.245Z,1024.13
2018-12-26T05:40:56.218Z,1024.15
2018-12-26T05:41:56.183Z,1024.09
2018-12-26T05:42:56.148Z,1024.12
2018-12-26T05:43:56.118Z,1024.09
2018-12-26T05:44:56.085Z,1024.01
2018-12-26T05:45:56.054Z,1024.13
2018-12-26T05:46:56.027Z,1024.17
2018-12-26T05:47:55.990Z,1024.16
2018-12-26T05:48:55.959Z,1024.16
2018-12-26T05:49:55.927Z,1024.18
2018-12-26T05:50:55.893Z,1024.18
2018-12-26T05:51:55.862Z,1024.21
2018-12-26T05:52:55.832Z,1024.31
2018-12-26T05:53:55.799Z,1024.24
2018-12-26T05:54:55.766Z,1024.24
2018-12-26T05:55:55.737Z,1024.30
2018-12-26T05:56:55.704Z,1024.33
2018-12-26T05:57:55.672Z,1024.17
2018-12-26T05:58:55.638Z,1024.25
2018-12-26T05:59:55.607Z,1024.26
2018-12-26T06:00:55.575Z,1024.31
2018-12-26T06:01:55.544Z,1024.39
2018-12-26T06:02:55.511Z,1024.33
2018-12-26T06:03:55.479Z,1024.41
2018-12-26T06:04:55.447Z,1024.32
2018-12-26T06:05:55.424Z,1024.47
2018-12-26T06:06:55.382Z,1024.38
2018-12-26T06:07:55.351Z,1024.36
2018-12-26T06:08:55.326Z,1024.24
2018-12-26T06:09:55.290Z,1024.35
2018-12-26T06:10:55.259Z,1024.43
2018-12-26T06:11:55.244Z,1024.36
2018-12-26T06:12:55.191Z,1024.42
2018-12-26T06:13:55.162Z,1024.38
2018-12-26T06:14:55.129Z,1024.42
2018-12-26T06:15:55.099Z,1024.46
2018-12-26T06:16:55.066Z,1024.51
2018-12-26T06:17:55.034Z,1024.48
2018-12-26T06:18:55.000Z,1024.47
2018-12-26T06:19:54.970Z,1024.50
2018-12-26T06:20:54.938Z,1024.32
2018-12-26T06:21:54.908Z,1024.42
2018-12-26T06:22:54.875Z,1024.41
2018-12-26T06:23:54.883Z,1024.46
2018-12-26T06:24:54.811Z,1024.41
2018-12-26T06:25:54.780Z,1024.39
2018-12-26T06:26:54.747Z,1024.45
2018-12-26T06:27:54.717Z,1024.46
2018-12-26T06:28:54.683Z,1024.48
2018-12-26T06:29:54.653Z,1024.53
2018-12-26T06:30:54.620Z,1024.54
2018-12-26T06:31:54.588Z,1024.56
2018-12-26T06:32:54.557Z,1024.55
2018-12-26T06:33:54.524Z,1024.63
2018-12-26T06:34:54.492Z,1024.61
2018-12-26T06:35:54.461Z,1024.46
2018-12-26T06:36:54.430Z,1024.49
2018-12-26T06:37:54.399Z,1024.63
2018-12-26T06:38:54.366Z,1024.58
2018-12-26T06:39:54.333Z,1024.50
2018-12-26T06:40:54.303Z,1024.44
2018-12-26T06:41:54.271Z,1024.55
2018-12-26T06:42:54.238Z,1024.53
2018-12-26T06:43:54.209Z,1024.54
2018-12-26T06:44:54.176Z,1024.60
2018-12-26T06:45:54.153Z,1024.73
2018-12-26T06:46:54.113Z,1024.61
2018-12-26T06:47:54.080Z,1024.56
2018-12-26T06:48:54.049Z,1024.40
2018-12-26T06:49:54.021Z,1024.64
2018-12-26T06:50:53.989Z,1024.64
2018-12-26T06:51:53.959Z,1024.63
2018-12-26T06:52:53.922Z,1024.71
2018-12-26T06:53:53.892Z,1024.68
2018-12-26T06:54:53.860Z,1024.62
2018-12-26T06:55:53.829Z,1024.65
2018-12-26T06:56:53.849Z,1024.66
2018-12-26T06:58:00.053Z,1024.61
2018-12-26T06:58:53.739Z,1024.54
2018-12-26T06:59:53.702Z,1024.63
2018-12-26T07:00:53.675Z,1024.49
2018-12-26T07:01:53.638Z,1024.46
2018-12-26T07:02:53.608Z,1024.72
2018-12-26T07:03:53.578Z,1024.63
2018-12-26T07:04:53.544Z,1024.54
2018-12-26T07:05:53.512Z,1024.60
2018-12-26T07:06:53.480Z,1024.70
2018-12-26T07:07:53.448Z,1024.53
2018-12-26T07:08:53.417Z,1024.62
2018-12-26T07:09:53.387Z,1024.72
2018-12-26T07:10:53.356Z,1024.72
2018-12-26T07:11:53.332Z,1024.64
2018-12-26T07:12:53.292Z,1024.77
2018-12-26T07:13:53.263Z,1024.70
2018-12-26T07:14:53.231Z,1024.76
2018-12-26T07:15:53.199Z,1024.66
2018-12-26T07:16:53.166Z,1024.82
2018-12-26T07:17:53.284Z,1024.78
2018-12-26T07:18:53.100Z,1024.79
2018-12-26T07:19:53.071Z,1024.86
2018-12-26T07:20:53.039Z,1024.83
2018-12-26T07:21:53.010Z,1024.87
2018-12-26T07:22:52.978Z,1024.93
2018-12-26T07:23:52.944Z,1024.86
2018-12-26T07:24:52.913Z,1024.90
2018-12-26T07:25:52.881Z,1024.80
2018-12-26T07:26:52.848Z,1024.82
2018-12-26T07:27:52.818Z,1024.79
2018-12-26T07:28:52.790Z,1024.87
2018-12-26T07:29:52.758Z,1024.93
2018-12-26T07:30:52.724Z,1024.97
2018-12-26T07:31:52.691Z,1024.96
2018-12-26T07:32:52.660Z,1024.95
2018-12-26T07:33:52.629Z,1025.00
2018-12-26T07:34:52.597Z,1024.92
2018-12-26T07:35:52.570Z,1024.99
2018-12-26T07:36:52.537Z,1024.90
2018-12-26T07:37:52.504Z,1024.98
2018-12-26T07:38:52.471Z,1025.07
2018-12-26T07:39:52.444Z,1025.08
2018-12-26T07:40:52.414Z,1025.05
2018-12-26T07:41:52.381Z,1025.12
2018-12-26T07:42:52.344Z,1025.01
2018-12-26T07:43:52.313Z,1025.00
2018-12-26T07:44:52.281Z,1025.00
2018-12-26T07:45:52.252Z,1025.01
2018-12-26T07:46:53.071Z,1025.01
2018-12-26T07:47:52.186Z,1025.05
2018-12-26T07:48:52.164Z,1025.04
2018-12-26T07:49:52.123Z,1025.03
2018-12-26T07:50:52.103Z,1024.98
2018-12-26T07:51:52.061Z,1025.11
2018-12-26T07:52:52.029Z,1025.05
2018-12-26T07:53:51.998Z,1025.10
2018-12-26T07:54:51.966Z,1025.08
2018-12-26T07:55:51.934Z,1025.05
2018-12-26T07:56:51.907Z,1025.03
2018-12-26T07:57:51.872Z,1024.97
2018-12-26T07:58:51.844Z,1024.95
2018-12-26T07:59:51.810Z,1024.91
2018-12-26T08:00:51.780Z,1024.97
2018-12-26T08:01:51.749Z,1024.98
2018-12-26T08:02:51.717Z,1024.95
2018-12-26T08:03:51.684Z,1025.01
2018-12-26T08:04:51.652Z,1025.01
2018-12-26T08:05:51.619Z,1025.00
2018-12-26T08:06:51.587Z,1025.05
2018-12-26T08:07:51.578Z,1024.93
2018-12-26T08:08:51.526Z,1024.96
2018-12-26T08:09:51.494Z,1024.94
2018-12-26T08:10:51.462Z,1024.95
2018-12-26T08:11:51.430Z,1024.90
2018-12-26T08:12:51.399Z,1024.89
2018-12-26T08:13:51.368Z,1024.83
2018-12-26T08:14:51.336Z,1024.75
2018-12-26T08:15:51.304Z,1024.82
2018-12-26T08:16:53.294Z,1024.87
2018-12-26T08:17:51.246Z,1024.80
2018-12-26T08:18:51.210Z,1024.75
2018-12-26T08:19:51.180Z,1024.87
2018-12-26T08:20:51.149Z,1024.96
2018-12-26T08:21:51.116Z,1024.91
2018-12-26T08:22:51.084Z,1024.84
2018-12-26T08:23:51.056Z,1024.87
2018-12-26T08:24:51.120Z,1024.88
2018-12-26T08:25:50.994Z,1024.83
2018-12-26T08:26:50.959Z,1024.86
2018-12-26T08:27:50.928Z,1024.81
2018-12-26T08:28:50.895Z,1024.83
2018-12-26T08:29:50.867Z,1024.82
2018-12-26T08:30:50.834Z,1024.82
2018-12-26T08:31:50.802Z,1024.80
2018-12-26T08:32:50.772Z,1024.81
2018-12-26T08:33:50.742Z,1024.84
2018-12-26T08:34:50.708Z,1024.78
2018-12-26T08:35:50.682Z,1024.82
2018-12-26T08:36:50.645Z,1024.77
2018-12-26T08:37:50.618Z,1024.79
2018-12-26T08:38:50.589Z,1024.85
2018-12-26T08:39:50.558Z,1024.81
2018-12-26T08:40:50.521Z,1024.80
2018-12-26T08:41:50.489Z,1024.82
2018-12-26T08:42:50.457Z,1024.75
2018-12-26T08:43:50.427Z,1024.79
2018-12-26T08:44:50.396Z,1024.77
2018-12-26T08:45:50.365Z,1024.86
2018-12-26T08:46:50.334Z,1024.86
2018-12-26T08:47:50.300Z,1024.87
2018-12-26T08:48:50.271Z,1024.90
2018-12-26T08:49:50.239Z,1024.83
2018-12-26T08:50:50.207Z,1024.88
2018-12-26T08:51:50.262Z,1024.95
2018-12-26T08:52:50.350Z,1024.91
2018-12-26T08:53:50.115Z,1025.06
2018-12-26T08:54:50.088Z,1024.94
2018-12-26T08:55:50.053Z,1024.95
2018-12-26T08:56:50.026Z,1024.93
2018-12-26T08:57:49.991Z,1024.88
2018-12-26T08:58:49.962Z,1024.96
2018-12-26T08:59:49.927Z,1024.92
2018-12-26T09:00:49.895Z,1024.85
2018-12-26T09:01:49.866Z,1024.89
2018-12-26T09:02:50.689Z,1024.96
2018-12-26T09:03:49.804Z,1025.07
2018-12-26T09:04:49.775Z,1024.97
2018-12-26T09:05:49.742Z,1024.89
2018-12-26T09:06:49.707Z,1024.94
2018-12-26T09:07:49.677Z,1024.88
2018-12-26T09:08:49.648Z,1024.84
2018-12-26T09:09:49.627Z,1024.87
2018-12-26T09:10:49.585Z,1024.87
2018-12-26T09:11:49.552Z,1024.90
2018-12-26T09:12:49.522Z,1024.83
2018-12-26T09:13:49.490Z,1025.02
2018-12-26T09:14:49.460Z,1024.98
2018-12-26T09:15:49.428Z,1024.96
2018-12-26T09:16:49.402Z,1025.03
2018-12-26T09:17:49.372Z,1025.06
2018-12-26T09:18:49.335Z,1025.04
2018-12-26T09:19:49.308Z,1025.08
2018-12-26T09:20:49.273Z,1025.09
2018-12-26T09:21:49.241Z,1025.09
2018-12-26T09:22:49.212Z,1024.96
2018-12-26T09:23:49.180Z,1024.87
2018-12-26T09:24:49.150Z,1025.27
2018-12-26T09:25:49.118Z,1025.01
2018-12-26T09:26:49.086Z,1024.91
2018-12-26T09:27:49.055Z,1025.04
2018-12-26T09:28:49.025Z,1024.98
2018-12-26T09:29:48.994Z,1024.98
2018-12-26T09:30:48.961Z,1024.96
2018-12-26T09:31:48.930Z,1025.01
2018-12-26T09:32:48.902Z,1024.91
2018-12-26T09:33:48.871Z,1024.82
2018-12-26T09:34:48.847Z,1024.85
2018-12-26T09:35:48.811Z,1024.85
2018-12-26T09:36:48.776Z,1024.89
2018-12-26T09:37:48.746Z,1024.86
2018-12-26T09:38:48.714Z,1025.02
2018-12-26T09:39:48.683Z,1024.94
2018-12-26T09:40:48.655Z,1025.02
2018-12-26T09:41:48.622Z,1024.99
2018-12-26T09:42:48.590Z,1024.89
2018-12-26T09:43:48.560Z,1024.76
2018-12-26T09:44:54.325Z,1024.80
2018-12-26T09:45:48.498Z,1024.94
2018-12-26T09:46:48.467Z,1024.98
2018-12-26T09:47:48.435Z,1025.00
2018-12-26T09:48:48.408Z,1024.92
2018-12-26T09:49:48.374Z,1024.80
2018-12-26T09:50:48.353Z,1024.87
2018-12-26T09:51:48.313Z,1024.84
2018-12-26T09:52:48.282Z,1024.88
2018-12-26T09:53:48.255Z,1025.02
2018-12-26T09:54:49.293Z,1024.97
2018-12-26T09:55:48.190Z,1025.09
2018-12-26T09:56:48.163Z,1025.18
2018-12-26T09:57:48.131Z,1025.07
2018-12-26T09:58:52.418Z,1025.01
2018-12-26T09:59:48.066Z,1024.97
2018-12-26T10:00:48.034Z,1024.84
2018-12-26T10:01:48.007Z,1024.97
2018-12-26T10:02:47.973Z,1025.11
2018-12-26T10:03:47.944Z,1024.94
2018-12-26T10:04:47.914Z,1025.03
2018-12-26T10:05:47.882Z,1025.00
2018-12-26T10:06:47.850Z,1025.01
2018-12-26T10:07:47.819Z,1025.07
2018-12-26T10:08:47.790Z,1024.96
2018-12-26T10:09:47.758Z,1025.03
2018-12-26T10:10:47.728Z,1025.10
2018-12-26T10:11:47.695Z,1025.07
2018-12-26T10:12:47.667Z,1025.08
2018-12-26T10:13:47.634Z,1025.03
2018-12-26T10:14:47.604Z,1025.17
2018-12-26T10:15:47.572Z,1025.13
2018-12-26T10:16:47.547Z,1025.00
2018-12-26T10:17:47.510Z,1025.12
2018-12-26T10:18:47.484Z,1025.11
2018-12-26T10:19:47.450Z,1025.20
2018-12-26T10:20:47.419Z,1025.12
2018-12-26T10:21:47.392Z,1025.09
2018-12-26T10:22:47.357Z,1025.15
2018-12-26T10:23:47.332Z,1025.13
2018-12-26T10:24:47.296Z,1025.12
2018-12-26T10:25:47.265Z,1025.10
2018-12-26T10:26:47.240Z,1025.12
2018-12-26T10:27:47.202Z,1025.09
2018-12-26T10:28:47.259Z,1025.21
2018-12-26T10:29:47.141Z,1025.08
2018-12-26T10:30:47.111Z,1025.13
2018-12-26T10:31:47.081Z,1025.11
2018-12-26T10:32:47.050Z,1025.17
2018-12-26T10:33:47.020Z,1025.09
2018-12-26T10:34:46.995Z,1025.17
2018-12-26T10:35:46.957Z,1025.14
2018-12-26T10:36:46.927Z,1025.14
2018-12-26T10:37:46.906Z,1025.14
2018-12-26T10:38:46.867Z,1025.21
2018-12-26T10:39:46.837Z,1025.14
2018-12-26T10:40:46.804Z,1025.16
2018-12-26T10:41:46.774Z,1025.18
2018-12-26T10:42:46.744Z,1025.18
2018-12-26T10:43:46.714Z,1025.14
2018-12-26T10:44:46.682Z,1025.19
2018-12-26T10:45:46.652Z,1025.29
2018-12-26T10:46:46.619Z,1025.16
2018-12-26T10:47:46.590Z,1025.15
2018-12-26T10:48:46.559Z,1025.22
2018-12-26T10:49:46.529Z,1025.15
2018-12-26T10:50:46.499Z,1025.18
2018-12-26T10:51:46.466Z,1025.13
2018-12-26T10:52:46.441Z,1025.13
2018-12-26T10:53:46.405Z,1025.05
2018-12-26T10:54:46.376Z,1025.07
2018-12-26T10:55:46.345Z,1025.12
2018-12-26T10:56:46.313Z,1025.19
2018-12-26T10:57:46.285Z,1025.20
2018-12-26T10:58:46.253Z,1025.07
2018-12-26T10:59:46.222Z,1025.17
2018-12-26T11:00:46.192Z,1025.11
2018-12-26T11:01:46.161Z,1025.04
2018-12-26T11:02:46.130Z,1025.03
2018-12-26T11:03:46.114Z,1025.04
2018-12-26T11:04:46.069Z,1025.09
2018-12-26T11:05:46.040Z,1025.10
2018-12-26T11:06:46.008Z,1025.06
2018-12-26T11:07:45.978Z,1025.09
2018-12-26T11:08:45.947Z,1025.08
2018-12-26T11:09:45.916Z,1025.06
2018-12-26T11:10:45.885Z,1025.11
2018-12-26T11:11:45.856Z,1024.97
2018-12-26T11:12:45.824Z,1024.98
2018-12-26T11:13:45.795Z,1025.07
2018-12-26T11:14:45.764Z,1025.04
2018-12-26T11:15:45.735Z,1025.04
2018-12-26T11:16:45.706Z,1024.99
2018-12-26T11:17:45.676Z,1025.07
2018-12-26T11:18:45.642Z,1024.99
2018-12-26T11:19:45.611Z,1024.88
2018-12-26T11:20:45.580Z,1025.10
2018-12-26T11:21:45.551Z,1025.00
2018-12-26T11:22:45.521Z,1024.99
2018-12-26T11:23:45.488Z,1024.99
2018-12-26T11:24:45.465Z,1025.05
2018-12-26T11:25:45.427Z,1024.93
2018-12-26T11:26:45.396Z,1024.96
2018-12-26T11:27:45.367Z,1025.07
2018-12-26T11:28:45.336Z,1025.09
2018-12-26T11:29:45.311Z,1024.99
2018-12-26T11:30:45.279Z,1024.98
2018-12-26T11:31:45.244Z,1025.08
2018-12-26T11:32:45.215Z,1025.01
2018-12-26T11:33:45.185Z,1025.02
2018-12-26T11:34:45.154Z,1025.05
2018-12-26T11:35:45.123Z,1025.07
2018-12-26T11:36:45.096Z,1025.02
2018-12-26T11:37:45.065Z,1025.10
2018-12-26T11:38:45.033Z,1025.09
2018-12-26T11:39:45.001Z,1025.10
2018-12-26T11:40:44.971Z,1025.08
2018-12-26T11:41:44.944Z,1025.07
2018-12-26T11:42:44.910Z,1025.05
2018-12-26T11:43:44.881Z,1025.03
2018-12-26T11:44:44.849Z,1025.09
2018-12-26T11:45:44.819Z,1024.99
2018-12-26T11:46:44.787Z,1025.09
2018-12-26T11:47:44.757Z,1025.03
2018-12-26T11:48:44.734Z,1025.02
2018-12-26T11:49:44.699Z,1025.01
2018-12-26T11:50:44.666Z,1024.98
2018-12-26T11:51:44.635Z,1025.07
2018-12-26T11:52:44.605Z,1025.02
2018-12-26T11:53:44.577Z,1025.04
2018-12-26T11:54:44.544Z,1025.00
2018-12-26T11:55:44.514Z,1025.08
2018-12-26T11:56:44.482Z,1024.99
2018-12-26T11:57:44.453Z,1024.94
2018-12-26T11:58:44.424Z,1024.92
2018-12-26T11:59:44.391Z,1024.96
2018-12-26T12:00:44.361Z,1024.90
2018-12-26T12:01:44.333Z,1025.02
2018-12-26T12:02:44.308Z,1024.95
2018-12-26T12:03:44.271Z,1024.97
2018-12-26T12:04:44.242Z,1024.87